sensor_id;sensor_type;location;lat;lon;timestamp;P1;durP1;ratioP1;P2;durP2;ratioP2
50781;SDS011;36749;37.428;-121.972;2023-07-28T00:00:18;19.77;;;5.13;;
50781;SDS011;36749;37.428;-121.972;2023-07-28T00:02:44;22.17;;;5.60;;
50781;SDS011;36749;37.428;-121.972;2023-07-28T00:05:10;22.45;;;5.00;;
50781;SDS011;36749;37.428;-121.972;2023-07-28T00:07:36;15.95;;;4.95;;
50781;SDS011;36749;37.428;-121.972;2023-07-28T00:10:02;32.00;;;5.70;;
50781;SDS011;36749;37.428;-121.972;2023-07-28T00:12:29;21.02;;;5.03;;
50781;SDS011;36749;37.428;-121.972;2023-07-28T00:14:55;18.00;;;4.57;;
50781;SDS011;36749;37.428;-121.972;2023-07-28T00:17:21;16.75;;;4.57;;
50781;SDS011;36749;37.428;-121.972;2023-07-28T00:19:47;15.73;;;4.68;;
50781;SDS011;36749;37.428;-121.972;2023-07-28T00:22:14;17.67;;;5.25;;
50781;SDS011;36749;37.428;-121.972;2023-07-28T00:24:40;20.77;;;4.80;;
50781;SDS011;36749;37.428;-121.972;2023-07-28T00:27:06;22.40;;;5.05;;
50781;SDS011;36749;37.428;-121.972;2023-07-28T00:29:32;17.88;;;4.85;;
50781;SDS011;36749;37.428;-121.972;2023-07-28T00:31:58;20.55;;;5.90;;
50781;SDS011;36749;37.428;-121.972;2023-07-28T00:34:24;21.15;;;6.07;;
50781;SDS011;36749;37.428;-121.972;2023-07-28T00:36:51;18.45;;;5.32;;
50781;SDS011;36749;37.428;-121.972;2023-07-28T00:39:17;15.75;;;5.20;;
50781;SDS011;36749;37.428;-121.972;2023-07-28T00:41:43;17.48;;;5.07;;
50781;SDS011;36749;37.428;-121.972;2023-07-28T00:44:10;15.93;;;5.50;;
50781;SDS011;36749;37.428;-121.972;2023-07-28T00:46:36;14.55;;;4.85;;
50781;SDS011;36749;37.428;-121.972;2023-07-28T00:49:02;19.70;;;5.07;;
50781;SDS011;36749;37.428;-121.972;2023-07-28T00:51:30;20.63;;;5.68;;
50781;SDS011;36749;37.428;-121.972;2023-07-28T00:53:57;23.25;;;6.05;;
50781;SDS011;36749;37.428;-121.972;2023-07-28T00:56:24;18.38;;;5.68;;
50781;SDS011;36749;37.428;-121.972;2023-07-28T00:58:50;20.45;;;6.00;;
50781;SDS011;36749;37.428;-121.972;2023-07-28T01:01:17;14.95;;;5.18;;
50781;SDS011;36749;37.428;-121.972;2023-07-28T01:03:43;38.92;;;7.47;;
50781;SDS011;36749;37.428;-121.972;2023-07-28T01:07:10;22.13;;;6.13;;
50781;SDS011;36749;37.428;-121.972;2023-07-28T01:09:14;20.55;;;6.60;;
50781;SDS011;36749;37.428;-121.972;2023-07-28T01:11:56;19.88;;;5.70;;
50781;SDS011;36749;37.428;-121.972;2023-07-28T01:14:23;24.50;;;6.40;;
50781;SDS011;36749;37.428;-121.972;2023-07-28T01:16:50;18.67;;;5.43;;
50781;SDS011;36749;37.428;-121.972;2023-07-28T01:19:17;23.02;;;5.95;;
50781;SDS011;36749;37.428;-121.972;2023-07-28T01:21:45;24.77;;;6.38;;
50781;SDS011;36749;37.428;-121.972;2023-07-28T01:24:47;23.50;;;5.50;;
50781;SDS011;36749;37.428;-121.972;2023-07-28T01:27:15;19.35;;;6.28;;
50781;SDS011;36749;37.428;-121.972;2023-07-28T01:29:42;19.45;;;5.15;;
50781;SDS011;36749;37.428;-121.972;2023-07-28T01:32:10;20.85;;;5.85;;
50781;SDS011;36749;37.428;-121.972;2023-07-28T01:34:36;18.35;;;5.72;;
50781;SDS011;36749;37.428;-121.972;2023-07-28T01:37:03;25.23;;;5.72;;
50781;SDS011;36749;37.428;-121.972;2023-07-28T01:39:29;17.58;;;5.45;;
50781;SDS011;36749;37.428;-121.972;2023-07-28T01:41:55;20.85;;;5.30;;
50781;SDS011;36749;37.428;-121.972;2023-07-28T01:44:21;25.70;;;5.72;;
50781;SDS011;36749;37.428;-121.972;2023-07-28T01:46:47;18.85;;;5.20;;
50781;SDS011;36749;37.428;-121.972;2023-07-28T01:49:14;21.95;;;5.38;;
50781;SDS011;36749;37.428;-121.972;2023-07-28T01:51:40;21.17;;;5.43;;
50781;SDS011;36749;37.428;-121.972;2023-07-28T01:54:06;16.33;;;4.80;;
50781;SDS011;36749;37.428;-121.972;2023-07-28T01:56:32;20.30;;;5.25;;
50781;SDS011;36749;37.428;-121.972;2023-07-28T01:58:58;18.67;;;5.43;;
50781;SDS011;36749;37.428;-121.972;2023-07-28T02:01:24;18.33;;;4.63;;
50781;SDS011;36749;37.428;-121.972;2023-07-28T02:03:51;19.95;;;4.25;;
50781;SDS011;36749;37.428;-121.972;2023-07-28T02:06:17;25.88;;;5.57;;
50781;SDS011;36749;37.428;-121.972;2023-07-28T02:08:44;20.83;;;4.50;;
50781;SDS011;36749;37.428;-121.972;2023-07-28T02:11:10;20.67;;;5.07;;
50781;SDS011;36749;37.428;-121.972;2023-07-28T02:13:37;20.42;;;4.63;;
50781;SDS011;36749;37.428;-121.972;2023-07-28T02:16:04;17.13;;;4.32;;
50781;SDS011;36749;37.428;-121.972;2023-07-28T02:18:31;17.48;;;4.47;;
50781;SDS011;36749;37.428;-121.972;2023-07-28T02:21:02;16.17;;;4.18;;
50781;SDS011;36749;37.428;-121.972;2023-07-28T02:23:30;19.88;;;5.57;;
50781;SDS011;36749;37.428;-121.972;2023-07-28T02:25:58;17.98;;;4.68;;
50781;SDS011;36749;37.428;-121.972;2023-07-28T02:28:24;15.80;;;4.20;;
50781;SDS011;36749;37.428;-121.972;2023-07-28T02:30:51;14.23;;;4.50;;
50781;SDS011;36749;37.428;-121.972;2023-07-28T02:33:20;16.48;;;5.05;;
50781;SDS011;36749;37.428;-121.972;2023-07-28T02:35:48;17.27;;;4.72;;
50781;SDS011;36749;37.428;-121.972;2023-07-28T02:38:15;17.90;;;3.83;;
50781;SDS011;36749;37.428;-121.972;2023-07-28T02:40:42;15.98;;;4.00;;
50781;SDS011;36749;37.428;-121.972;2023-07-28T02:43:08;17.13;;;4.47;;
50781;SDS011;36749;37.428;-121.972;2023-07-28T02:45:37;17.13;;;4.60;;
50781;SDS011;36749;37.428;-121.972;2023-07-28T02:48:05;18.42;;;4.28;;
50781;SDS011;36749;37.428;-121.972;2023-07-28T02:50:33;19.13;;;5.20;;
50781;SDS011;36749;37.428;-121.972;2023-07-28T02:52:59;20.45;;;4.53;;
50781;SDS011;36749;37.428;-121.972;2023-07-28T02:55:25;20.98;;;5.57;;
50781;SDS011;36749;37.428;-121.972;2023-07-28T02:57:54;20.48;;;5.22;;
50781;SDS011;36749;37.428;-121.972;2023-07-28T03:00:21;17.20;;;4.20;;
50781;SDS011;36749;37.428;-121.972;2023-07-28T03:02:48;15.68;;;4.68;;
50781;SDS011;36749;37.428;-121.972;2023-07-28T03:05:26;18.48;;;5.50;;
50781;SDS011;36749;37.428;-121.972;2023-07-28T03:07:52;18.55;;;4.40;;
50781;SDS011;36749;37.428;-121.972;2023-07-28T03:10:19;14.77;;;4.30;;
50781;SDS011;36749;37.428;-121.972;2023-07-28T03:12:45;16.67;;;4.57;;
50781;SDS011;36749;37.428;-121.972;2023-07-28T03:15:11;23.95;;;4.85;;
50781;SDS011;36749;37.428;-121.972;2023-07-28T03:17:39;18.77;;;4.60;;
50781;SDS011;36749;37.428;-121.972;2023-07-28T03:20:05;16.38;;;4.32;;
50781;SDS011;36749;37.428;-121.972;2023-07-28T03:22:32;19.27;;;4.78;;
50781;SDS011;36749;37.428;-121.972;2023-07-28T03:24:58;18.50;;;4.65;;
50781;SDS011;36749;37.428;-121.972;2023-07-28T03:27:25;20.35;;;4.68;;
50781;SDS011;36749;37.428;-121.972;2023-07-28T03:29:52;16.10;;;4.40;;
50781;SDS011;36749;37.428;-121.972;2023-07-28T03:32:18;19.13;;;4.35;;
50781;SDS011;36749;37.428;-121.972;2023-07-28T03:34:44;19.05;;;4.88;;
50781;SDS011;36749;37.428;-121.972;2023-07-28T03:37:12;17.15;;;4.15;;
50781;SDS011;36749;37.428;-121.972;2023-07-28T03:39:42;25.75;;;5.38;;
50781;SDS011;36749;37.428;-121.972;2023-07-28T03:42:09;23.63;;;4.93;;
50781;SDS011;36749;37.428;-121.972;2023-07-28T03:44:35;15.48;;;4.38;;
50781;SDS011;36749;37.428;-121.972;2023-07-28T03:47:03;21.30;;;5.78;;
50781;SDS011;36749;37.428;-121.972;2023-07-28T03:49:29;18.10;;;4.70;;
50781;SDS011;36749;37.428;-121.972;2023-07-28T03:51:56;21.15;;;4.50;;
50781;SDS011;36749;37.428;-121.972;2023-07-28T03:54:22;18.45;;;4.45;;
50781;SDS011;36749;37.428;-121.972;2023-07-28T03:56:48;13.00;;;4.05;;
50781;SDS011;36749;37.428;-121.972;2023-07-28T03:59:14;20.13;;;4.53;;
50781;SDS011;36749;37.428;-121.972;2023-07-28T04:01:40;15.50;;;4.32;;
50781;SDS011;36749;37.428;-121.972;2023-07-28T04:04:06;16.85;;;4.50;;
50781;SDS011;36749;37.428;-121.972;2023-07-28T04:09:07;20.83;;;4.65;;
50781;SDS011;36749;37.428;-121.972;2023-07-28T04:11:33;18.30;;;5.05;;
50781;SDS011;36749;37.428;-121.972;2023-07-28T04:14:00;19.50;;;4.30;;
50781;SDS011;36749;37.428;-121.972;2023-07-28T04:16:26;17.10;;;4.93;;
50781;SDS011;36749;37.428;-121.972;2023-07-28T04:18:52;18.80;;;4.97;;
50781;SDS011;36749;37.428;-121.972;2023-07-28T04:21:18;22.17;;;5.55;;
50781;SDS011;36749;37.428;-121.972;2023-07-28T04:23:45;21.13;;;4.35;;
50781;SDS011;36749;37.428;-121.972;2023-07-28T04:26:12;19.05;;;4.88;;
50781;SDS011;36749;37.428;-121.972;2023-07-28T04:28:38;18.67;;;4.63;;
50781;SDS011;36749;37.428;-121.972;2023-07-28T04:31:04;21.42;;;5.50;;
50781;SDS011;36749;37.428;-121.972;2023-07-28T04:33:31;16.25;;;4.45;;
50781;SDS011;36749;37.428;-121.972;2023-07-28T04:35:57;19.73;;;4.65;;
50781;SDS011;36749;37.428;-121.972;2023-07-28T04:38:23;14.70;;;4.20;;
50781;SDS011;36749;37.428;-121.972;2023-07-28T04:40:49;16.20;;;3.67;;
50781;SDS011;36749;37.428;-121.972;2023-07-28T04:43:15;19.08;;;4.97;;
50781;SDS011;36749;37.428;-121.972;2023-07-28T04:45:44;18.23;;;5.07;;
50781;SDS011;36749;37.428;-121.972;2023-07-28T04:48:11;19.02;;;5.00;;
50781;SDS011;36749;37.428;-121.972;2023-07-28T04:50:37;18.48;;;5.22;;
50781;SDS011;36749;37.428;-121.972;2023-07-28T04:53:03;17.75;;;4.75;;
50781;SDS011;36749;37.428;-121.972;2023-07-28T04:55:29;21.73;;;5.25;;
50781;SDS011;36749;37.428;-121.972;2023-07-28T04:57:56;18.60;;;5.57;;
50781;SDS011;36749;37.428;-121.972;2023-07-28T05:00:22;19.63;;;5.18;;
50781;SDS011;36749;37.428;-121.972;2023-07-28T05:02:48;22.77;;;4.80;;
50781;SDS011;36749;37.428;-121.972;2023-07-28T05:05:15;20.90;;;4.70;;
50781;SDS011;36749;37.428;-121.972;2023-07-28T05:07:41;26.70;;;5.20;;
50781;SDS011;36749;37.428;-121.972;2023-07-28T05:10:07;22.27;;;5.15;;
50781;SDS011;36749;37.428;-121.972;2023-07-28T05:12:34;21.25;;;4.53;;
50781;SDS011;36749;37.428;-121.972;2023-07-28T05:15:00;14.88;;;4.20;;
50781;SDS011;36749;37.428;-121.972;2023-07-28T05:17:26;22.15;;;5.53;;
50781;SDS011;36749;37.428;-121.972;2023-07-28T05:19:52;20.75;;;5.03;;
50781;SDS011;36749;37.428;-121.972;2023-07-28T05:22:18;20.98;;;4.80;;
50781;SDS011;36749;37.428;-121.972;2023-07-28T05:24:45;22.95;;;5.13;;
50781;SDS011;36749;37.428;-121.972;2023-07-28T05:27:11;21.38;;;5.32;;
50781;SDS011;36749;37.428;-121.972;2023-07-28T05:29:37;23.77;;;5.00;;
50781;SDS011;36749;37.428;-121.972;2023-07-28T05:32:04;22.80;;;5.70;;
50781;SDS011;36749;37.428;-121.972;2023-07-28T05:34:30;19.10;;;5.50;;
50781;SDS011;36749;37.428;-121.972;2023-07-28T05:36:57;20.45;;;5.30;;
50781;SDS011;36749;37.428;-121.972;2023-07-28T05:39:23;22.85;;;4.97;;
50781;SDS011;36749;37.428;-121.972;2023-07-28T05:41:49;18.35;;;5.38;;
50781;SDS011;36749;37.428;-121.972;2023-07-28T05:44:15;19.23;;;5.75;;
50781;SDS011;36749;37.428;-121.972;2023-07-28T05:46:41;22.77;;;5.40;;
50781;SDS011;36749;37.428;-121.972;2023-07-28T05:49:08;15.50;;;5.00;;
50781;SDS011;36749;37.428;-121.972;2023-07-28T05:51:34;18.17;;;4.78;;
50781;SDS011;36749;37.428;-121.972;2023-07-28T05:54:00;19.70;;;4.68;;
50781;SDS011;36749;37.428;-121.972;2023-07-28T05:56:26;19.05;;;4.88;;
50781;SDS011;36749;37.428;-121.972;2023-07-28T05:58:52;20.70;;;5.35;;
50781;SDS011;36749;37.428;-121.972;2023-07-28T06:01:18;14.68;;;4.68;;
50781;SDS011;36749;37.428;-121.972;2023-07-28T06:03:45;21.77;;;5.53;;
50781;SDS011;36749;37.428;-121.972;2023-07-28T06:06:11;16.58;;;4.70;;
50781;SDS011;36749;37.428;-121.972;2023-07-28T06:08:37;24.17;;;5.88;;
50781;SDS011;36749;37.428;-121.972;2023-07-28T06:11:04;22.50;;;5.35;;
50781;SDS011;36749;37.428;-121.972;2023-07-28T06:13:31;22.17;;;4.95;;
50781;SDS011;36749;37.428;-121.972;2023-07-28T06:15:58;20.60;;;5.78;;
50781;SDS011;36749;37.428;-121.972;2023-07-28T06:18:24;23.75;;;5.78;;
50781;SDS011;36749;37.428;-121.972;2023-07-28T06:20:50;17.63;;;5.72;;
50781;SDS011;36749;37.428;-121.972;2023-07-28T06:23:17;22.30;;;5.88;;
50781;SDS011;36749;37.428;-121.972;2023-07-28T06:25:43;21.70;;;5.20;;
50781;SDS011;36749;37.428;-121.972;2023-07-28T06:28:09;17.55;;;4.90;;
50781;SDS011;36749;37.428;-121.972;2023-07-28T06:30:36;16.45;;;4.78;;
50781;SDS011;36749;37.428;-121.972;2023-07-28T06:33:03;19.92;;;5.40;;
50781;SDS011;36749;37.428;-121.972;2023-07-28T06:35:32;19.92;;;4.97;;
50781;SDS011;36749;37.428;-121.972;2023-07-28T06:37:59;19.48;;;5.20;;
50781;SDS011;36749;37.428;-121.972;2023-07-28T06:40:26;21.77;;;5.28;;
50781;SDS011;36749;37.428;-121.972;2023-07-28T06:42:52;20.60;;;5.72;;
50781;SDS011;36749;37.428;-121.972;2023-07-28T06:45:19;20.80;;;5.68;;
50781;SDS011;36749;37.428;-121.972;2023-07-28T06:47:45;22.48;;;6.00;;
50781;SDS011;36749;37.428;-121.972;2023-07-28T06:50:11;26.67;;;5.72;;
50781;SDS011;36749;37.428;-121.972;2023-07-28T06:52:38;21.25;;;5.20;;
50781;SDS011;36749;37.428;-121.972;2023-07-28T06:55:04;18.98;;;5.32;;
50781;SDS011;36749;37.428;-121.972;2023-07-28T06:57:31;20.23;;;5.28;;
50781;SDS011;36749;37.428;-121.972;2023-07-28T06:59:57;20.65;;;4.43;;
50781;SDS011;36749;37.428;-121.972;2023-07-28T07:02:44;25.10;;;5.85;;
50781;SDS011;36749;37.428;-121.972;2023-07-28T07:05:10;21.80;;;5.10;;
50781;SDS011;36749;37.428;-121.972;2023-07-28T07:07:37;16.17;;;5.38;;
50781;SDS011;36749;37.428;-121.972;2023-07-28T07:10:04;23.25;;;6.70;;
50781;SDS011;36749;37.428;-121.972;2023-07-28T07:12:31;22.63;;;5.40;;
50781;SDS011;36749;37.428;-121.972;2023-07-28T07:14:57;28.73;;;5.75;;
50781;SDS011;36749;37.428;-121.972;2023-07-28T07:17:24;24.00;;;5.32;;
50781;SDS011;36749;37.428;-121.972;2023-07-28T07:19:50;21.42;;;5.65;;
50781;SDS011;36749;37.428;-121.972;2023-07-28T07:22:16;17.55;;;6.18;;
50781;SDS011;36749;37.428;-121.972;2023-07-28T07:24:43;25.13;;;5.97;;
50781;SDS011;36749;37.428;-121.972;2023-07-28T07:27:09;22.38;;;6.35;;
50781;SDS011;36749;37.428;-121.972;2023-07-28T07:29:38;19.80;;;5.53;;
50781;SDS011;36749;37.428;-121.972;2023-07-28T07:32:05;23.73;;;5.93;;
50781;SDS011;36749;37.428;-121.972;2023-07-28T07:34:33;22.23;;;5.55;;
50781;SDS011;36749;37.428;-121.972;2023-07-28T07:36:59;22.88;;;5.78;;
50781;SDS011;36749;37.428;-121.972;2023-07-28T07:39:26;23.48;;;5.82;;
50781;SDS011;36749;37.428;-121.972;2023-07-28T07:41:53;19.48;;;5.55;;
50781;SDS011;36749;37.428;-121.972;2023-07-28T07:44:19;19.27;;;5.15;;
50781;SDS011;36749;37.428;-121.972;2023-07-28T07:46:45;17.10;;;4.90;;
50781;SDS011;36749;37.428;-121.972;2023-07-28T07:49:11;22.75;;;4.95;;
50781;SDS011;36749;37.428;-121.972;2023-07-28T07:51:38;22.90;;;6.00;;
50781;SDS011;36749;37.428;-121.972;2023-07-28T07:54:04;24.52;;;5.32;;
50781;SDS011;36749;37.428;-121.972;2023-07-28T07:56:30;21.38;;;5.68;;
50781;SDS011;36749;37.428;-121.972;2023-07-28T07:58:57;25.52;;;5.65;;
50781;SDS011;36749;37.428;-121.972;2023-07-28T08:01:23;22.63;;;6.00;;
50781;SDS011;36749;37.428;-121.972;2023-07-28T08:03:49;27.13;;;5.78;;
50781;SDS011;36749;37.428;-121.972;2023-07-28T08:06:15;22.55;;;5.60;;
50781;SDS011;36749;37.428;-121.972;2023-07-28T08:08:42;19.73;;;6.15;;
50781;SDS011;36749;37.428;-121.972;2023-07-28T08:11:08;22.60;;;5.57;;
50781;SDS011;36749;37.428;-121.972;2023-07-28T08:13:35;20.88;;;6.32;;
50781;SDS011;36749;37.428;-121.972;2023-07-28T08:16:01;17.67;;;4.95;;
50781;SDS011;36749;37.428;-121.972;2023-07-28T08:18:27;20.17;;;5.43;;
50781;SDS011;36749;37.428;-121.972;2023-07-28T08:20:53;24.38;;;6.03;;
50781;SDS011;36749;37.428;-121.972;2023-07-28T08:23:19;23.65;;;5.28;;
50781;SDS011;36749;37.428;-121.972;2023-07-28T08:25:45;26.95;;;6.72;;
50781;SDS011;36749;37.428;-121.972;2023-07-28T08:28:12;19.20;;;5.65;;
50781;SDS011;36749;37.428;-121.972;2023-07-28T08:30:38;25.10;;;6.25;;
50781;SDS011;36749;37.428;-121.972;2023-07-28T08:33:04;21.65;;;5.60;;
50781;SDS011;36749;37.428;-121.972;2023-07-28T08:35:30;20.73;;;5.43;;
50781;SDS011;36749;37.428;-121.972;2023-07-28T08:37:56;18.52;;;5.32;;
50781;SDS011;36749;37.428;-121.972;2023-07-28T08:40:22;18.15;;;5.85;;
50781;SDS011;36749;37.428;-121.972;2023-07-28T08:42:50;25.50;;;6.15;;
50781;SDS011;36749;37.428;-121.972;2023-07-28T08:45:17;23.63;;;6.47;;
50781;SDS011;36749;37.428;-121.972;2023-07-28T08:47:44;19.20;;;5.22;;
50781;SDS011;36749;37.428;-121.972;2023-07-28T08:50:10;23.48;;;6.72;;
50781;SDS011;36749;37.428;-121.972;2023-07-28T08:52:36;20.20;;;5.10;;
50781;SDS011;36749;37.428;-121.972;2023-07-28T08:55:03;23.52;;;6.07;;
50781;SDS011;36749;37.428;-121.972;2023-07-28T08:57:29;18.63;;;6.00;;
50781;SDS011;36749;37.428;-121.972;2023-07-28T08:59:55;23.90;;;5.53;;
50781;SDS011;36749;37.428;-121.972;2023-07-28T09:02:22;24.52;;;6.28;;
50781;SDS011;36749;37.428;-121.972;2023-07-28T09:04:48;21.80;;;6.32;;
50781;SDS011;36749;37.428;-121.972;2023-07-28T09:07:14;14.63;;;5.15;;
50781;SDS011;36749;37.428;-121.972;2023-07-28T09:09:41;22.38;;;5.47;;
50781;SDS011;36749;37.428;-121.972;2023-07-28T09:12:08;22.85;;;5.35;;
50781;SDS011;36749;37.428;-121.972;2023-07-28T09:14:37;21.35;;;6.18;;
50781;SDS011;36749;37.428;-121.972;2023-07-28T09:17:10;24.48;;;5.60;;
50781;SDS011;36749;37.428;-121.972;2023-07-28T09:22:17;18.45;;;5.97;;
50781;SDS011;36749;37.428;-121.972;2023-07-28T09:24:44;24.13;;;7.35;;
50781;SDS011;36749;37.428;-121.972;2023-07-28T09:27:25;25.65;;;6.68;;
50781;SDS011;36749;37.428;-121.972;2023-07-28T09:29:52;23.83;;;5.95;;
50781;SDS011;36749;37.428;-121.972;2023-07-28T09:32:32;22.67;;;6.20;;
50781;SDS011;36749;37.428;-121.972;2023-07-28T09:37:37;26.05;;;6.63;;
50781;SDS011;36749;37.428;-121.972;2023-07-28T09:40:05;22.52;;;6.05;;
50781;SDS011;36749;37.428;-121.972;2023-07-28T09:42:39;26.27;;;6.22;;
50781;SDS011;36749;37.428;-121.972;2023-07-28T09:45:06;23.10;;;5.75;;
50781;SDS011;36749;37.428;-121.972;2023-07-28T09:47:36;27.38;;;6.45;;
50781;SDS011;36749;37.428;-121.972;2023-07-28T09:50:04;21.13;;;5.03;;
50781;SDS011;36749;37.428;-121.972;2023-07-28T09:52:36;23.55;;;5.93;;
50781;SDS011;36749;37.428;-121.972;2023-07-28T09:55:08;25.17;;;6.97;;
50781;SDS011;36749;37.428;-121.972;2023-07-28T09:57:39;21.92;;;6.35;;
50781;SDS011;36749;37.428;-121.972;2023-07-28T10:00:07;26.90;;;6.40;;
50781;SDS011;36749;37.428;-121.972;2023-07-28T10:02:34;32.50;;;6.00;;
50781;SDS011;36749;37.428;-121.972;2023-07-28T10:05:01;22.70;;;6.20;;
50781;SDS011;36749;37.428;-121.972;2023-07-28T10:07:28;24.08;;;5.88;;
50781;SDS011;36749;37.428;-121.972;2023-07-28T10:09:54;19.52;;;5.68;;
50781;SDS011;36749;37.428;-121.972;2023-07-28T10:12:24;23.25;;;6.15;;
50781;SDS011;36749;37.428;-121.972;2023-07-28T10:15:01;16.85;;;5.45;;
50781;SDS011;36749;37.428;-121.972;2023-07-28T10:17:34;24.42;;;7.10;;
50781;SDS011;36749;37.428;-121.972;2023-07-28T10:20:10;18.67;;;6.05;;
50781;SDS011;36749;37.428;-121.972;2023-07-28T10:22:53;24.42;;;5.82;;
50781;SDS011;36749;37.428;-121.972;2023-07-28T10:25:22;21.77;;;5.80;;
50781;SDS011;36749;37.428;-121.972;2023-07-28T10:27:50;22.02;;;6.25;;
50781;SDS011;36749;37.428;-121.972;2023-07-28T10:30:16;26.27;;;6.78;;
50781;SDS011;36749;37.428;-121.972;2023-07-28T10:32:45;26.48;;;6.95;;
50781;SDS011;36749;37.428;-121.972;2023-07-28T10:37:48;22.05;;;5.32;;
50781;SDS011;36749;37.428;-121.972;2023-07-28T10:40:24;28.85;;;7.07;;
50781;SDS011;36749;37.428;-121.972;2023-07-28T10:42:51;27.33;;;7.00;;
50781;SDS011;36749;37.428;-121.972;2023-07-28T10:45:18;25.15;;;6.75;;
50781;SDS011;36749;37.428;-121.972;2023-07-28T10:47:45;25.63;;;5.78;;
50781;SDS011;36749;37.428;-121.972;2023-07-28T10:50:11;18.60;;;5.30;;
50781;SDS011;36749;37.428;-121.972;2023-07-28T10:52:41;19.40;;;5.13;;
50781;SDS011;36749;37.428;-121.972;2023-07-28T10:55:15;20.80;;;6.25;;
50781;SDS011;36749;37.428;-121.972;2023-07-28T10:57:42;27.20;;;5.68;;
50781;SDS011;36749;37.428;-121.972;2023-07-28T11:00:12;23.17;;;6.38;;
50781;SDS011;36749;37.428;-121.972;2023-07-28T11:02:43;20.70;;;6.22;;
50781;SDS011;36749;37.428;-121.972;2023-07-28T11:05:18;25.30;;;6.55;;
50781;SDS011;36749;37.428;-121.972;2023-07-28T11:07:54;26.98;;;5.90;;
50781;SDS011;36749;37.428;-121.972;2023-07-28T11:10:25;22.92;;;5.70;;
50781;SDS011;36749;37.428;-121.972;2023-07-28T11:12:56;26.95;;;6.50;;
50781;SDS011;36749;37.428;-121.972;2023-07-28T11:15:24;26.42;;;5.85;;
50781;SDS011;36749;37.428;-121.972;2023-07-28T11:17:51;19.95;;;6.38;;
50781;SDS011;36749;37.428;-121.972;2023-07-28T11:20:21;23.33;;;5.82;;
50781;SDS011;36749;37.428;-121.972;2023-07-28T11:22:56;28.23;;;6.32;;
50781;SDS011;36749;37.428;-121.972;2023-07-28T11:25:27;25.95;;;6.70;;
50781;SDS011;36749;37.428;-121.972;2023-07-28T11:27:55;25.27;;;6.88;;
50781;SDS011;36749;37.428;-121.972;2023-07-28T11:30:21;23.42;;;6.80;;
50781;SDS011;36749;37.428;-121.972;2023-07-28T11:32:49;26.88;;;7.43;;
50781;SDS011;36749;37.428;-121.972;2023-07-28T11:35:17;23.38;;;5.70;;
50781;SDS011;36749;37.428;-121.972;2023-07-28T11:37:45;23.95;;;6.63;;
50781;SDS011;36749;37.428;-121.972;2023-07-28T11:40:14;19.90;;;6.40;;
50781;SDS011;36749;37.428;-121.972;2023-07-28T11:42:41;19.40;;;6.13;;
50781;SDS011;36749;37.428;-121.972;2023-07-28T11:45:10;22.10;;;6.47;;
50781;SDS011;36749;37.428;-121.972;2023-07-28T11:47:38;22.83;;;7.13;;
50781;SDS011;36749;37.428;-121.972;2023-07-28T11:50:04;23.80;;;6.28;;
50781;SDS011;36749;37.428;-121.972;2023-07-28T11:52:31;25.02;;;5.90;;
50781;SDS011;36749;37.428;-121.972;2023-07-28T11:55:01;24.25;;;6.88;;
50781;SDS011;36749;37.428;-121.972;2023-07-28T11:57:31;19.95;;;6.22;;
50781;SDS011;36749;37.428;-121.972;2023-07-28T11:59:58;23.67;;;5.47;;
50781;SDS011;36749;37.428;-121.972;2023-07-28T12:02:29;19.73;;;6.22;;
50781;SDS011;36749;37.428;-121.972;2023-07-28T12:04:56;28.77;;;6.25;;
50781;SDS011;36749;37.428;-121.972;2023-07-28T12:07:32;23.58;;;6.40;;
50781;SDS011;36749;37.428;-121.972;2023-07-28T12:10:05;22.02;;;5.97;;
50781;SDS011;36749;37.428;-121.972;2023-07-28T12:12:45;18.95;;;6.07;;
50781;SDS011;36749;37.428;-121.972;2023-07-28T12:15:20;23.42;;;6.32;;
50781;SDS011;36749;37.428;-121.972;2023-07-28T12:20:49;17.88;;;6.07;;
50781;SDS011;36749;37.428;-121.972;2023-07-28T12:23:18;27.00;;;6.00;;
50781;SDS011;36749;37.428;-121.972;2023-07-28T12:25:45;24.35;;;6.38;;
50781;SDS011;36749;37.428;-121.972;2023-07-28T12:28:12;23.10;;;5.90;;
50781;SDS011;36749;37.428;-121.972;2023-07-28T12:30:38;25.73;;;6.35;;
50781;SDS011;36749;37.428;-121.972;2023-07-28T12:33:04;21.38;;;6.03;;
50781;SDS011;36749;37.428;-121.972;2023-07-28T12:35:32;19.40;;;5.13;;
50781;SDS011;36749;37.428;-121.972;2023-07-28T12:38:02;21.02;;;5.97;;
50781;SDS011;36749;37.428;-121.972;2023-07-28T12:40:33;23.65;;;6.72;;
50781;SDS011;36749;37.428;-121.972;2023-07-28T12:43:01;21.67;;;5.82;;
50781;SDS011;36749;37.428;-121.972;2023-07-28T12:45:27;21.73;;;6.07;;
50781;SDS011;36749;37.428;-121.972;2023-07-28T12:47:54;19.58;;;6.28;;
50781;SDS011;36749;37.428;-121.972;2023-07-28T12:50:21;30.85;;;6.68;;
50781;SDS011;36749;37.428;-121.972;2023-07-28T12:52:48;23.67;;;7.43;;
50781;SDS011;36749;37.428;-121.972;2023-07-28T12:55:15;21.65;;;7.32;;
50781;SDS011;36749;37.428;-121.972;2023-07-28T12:57:42;22.33;;;6.97;;
50781;SDS011;36749;37.428;-121.972;2023-07-28T13:00:08;26.10;;;7.05;;
50781;SDS011;36749;37.428;-121.972;2023-07-28T13:02:44;29.23;;;7.30;;
50781;SDS011;36749;37.428;-121.972;2023-07-28T13:05:11;25.55;;;6.93;;
50781;SDS011;36749;37.428;-121.972;2023-07-28T13:07:38;23.02;;;7.40;;
50781;SDS011;36749;37.428;-121.972;2023-07-28T13:10:06;28.35;;;8.45;;
50781;SDS011;36749;37.428;-121.972;2023-07-28T13:12:37;20.38;;;5.90;;
50781;SDS011;36749;37.428;-121.972;2023-07-28T13:15:03;21.17;;;5.90;;
50781;SDS011;36749;37.428;-121.972;2023-07-28T13:17:30;18.52;;;6.72;;
50781;SDS011;36749;37.428;-121.972;2023-07-28T13:19:57;21.73;;;6.85;;
50781;SDS011;36749;37.428;-121.972;2023-07-28T13:22:23;24.35;;;7.53;;
50781;SDS011;36749;37.428;-121.972;2023-07-28T13:24:52;18.27;;;6.65;;
50781;SDS011;36749;37.428;-121.972;2023-07-28T13:27:19;20.55;;;6.55;;
50781;SDS011;36749;37.428;-121.972;2023-07-28T13:29:45;23.30;;;7.78;;
50781;SDS011;36749;37.428;-121.972;2023-07-28T13:32:18;21.70;;;6.90;;
50781;SDS011;36749;37.428;-121.972;2023-07-28T13:34:51;25.02;;;7.03;;
50781;SDS011;36749;37.428;-121.972;2023-07-28T13:37:18;24.00;;;7.28;;
50781;SDS011;36749;37.428;-121.972;2023-07-28T13:39:45;23.42;;;7.13;;
50781;SDS011;36749;37.428;-121.972;2023-07-28T13:42:14;31.50;;;7.28;;
50781;SDS011;36749;37.428;-121.972;2023-07-28T13:44:41;23.05;;;6.97;;
50781;SDS011;36749;37.428;-121.972;2023-07-28T13:47:09;27.33;;;7.75;;
50781;SDS011;36749;37.428;-121.972;2023-07-28T13:49:35;20.63;;;7.07;;
50781;SDS011;36749;37.428;-121.972;2023-07-28T13:52:03;26.77;;;7.28;;
50781;SDS011;36749;37.428;-121.972;2023-07-28T13:54:29;22.63;;;6.55;;
50781;SDS011;36749;37.428;-121.972;2023-07-28T13:56:55;23.40;;;7.40;;
50781;SDS011;36749;37.428;-121.972;2023-07-28T13:59:22;22.95;;;6.95;;
50781;SDS011;36749;37.428;-121.972;2023-07-28T14:01:48;22.35;;;8.15;;
50781;SDS011;36749;37.428;-121.972;2023-07-28T14:04:15;24.60;;;7.97;;
50781;SDS011;36749;37.428;-121.972;2023-07-28T14:06:41;27.33;;;7.00;;
50781;SDS011;36749;37.428;-121.972;2023-07-28T14:09:07;21.25;;;7.13;;
50781;SDS011;36749;37.428;-121.972;2023-07-28T14:11:34;22.55;;;6.70;;